Welcome to Des Moines Iowa Weather. I am an independent private personal weather station on the Northwest Side of Des Moines, Iowa. Just East of Windsor Heights and just West of Glendale . This site is also mobile friendly.

There are no active watches, warnings or advisories


Visit our other weather sites:

Historical Data

Weather Station Setup



Weather Underground History page Text

Daily Summary for May 4, 2017 Units:  English    Metric   Both
« Previous Day
Next Day »
Daily Weekly Monthly Yearly Custom
  High: Low: Average:
Temperature: 69.6 °F 38.6 °F 55.3 °F
Dew Point: 48.0 °F 34.0 °F 39.2 °F
Humidity: 91 % 30 % 59 %
Wind Speed: 11.0 mph 0.0 mph 1.9 mph
Wind Gust: 19.0 mph - -
Wind:- - SW
Pressure: 30.09 in 29.95 in -
Precipitation: 0.00 in    
Historical Graphs
 
 
Tabular Data for May 4, 2017
Time Temperature Dew Point Pressure Wind Wind Speed Wind Gust Humidity Rainfall Rate (Hourly)
00:13 43.7 °F 36.0 °F 30.09 in Calm     75 % 0.00 in
00:29 43.3 °F 37.0 °F 30.09 in Calm     77 % 0.00 in
00:44 42.8 °F 36.0 °F 30.09 in Calm     78 % 0.00 in
00:59 42.5 °F 36.0 °F 30.08 in Calm     79 % 0.00 in
01:14 42.2 °F 36.0 °F 30.08 in Calm     80 % 0.00 in
01:29 41.9 °F 37.0 °F 30.07 in Calm     81 % 0.00 in
01:44 41.6 °F 36.0 °F 30.06 in Calm     81 % 0.00 in
01:59 41.3 °F 36.0 °F 30.05 in Calm     81 % 0.00 in
02:14 41.1 °F 36.0 °F 30.05 in Calm     83 % 0.00 in
02:29 40.9 °F 36.0 °F 30.03 in Calm     84 % 0.00 in
02:44 40.7 °F 36.0 °F 30.03 in Calm     84 % 0.00 in
02:59 40.5 °F 36.0 °F 30.03 in Calm     84 % 0.00 in
03:14 40.2 °F 36.0 °F 30.03 in Calm     85 % 0.00 in
03:29 39.9 °F 36.0 °F 30.03 in Calm     85 % 0.00 in
03:44 39.7 °F 36.0 °F 30.04 in Calm     85 % 0.00 in
03:59 39.4 °F 36.0 °F 30.03 in Calm     86 % 0.00 in
04:15 39.1 °F 35.0 °F 30.03 in Calm     86 % 0.00 in
04:29 38.8 °F 35.0 °F 30.04 in Calm     87 % 0.00 in
04:44 38.6 °F 35.0 °F 30.03 in Calm     88 % 0.00 in
04:59 38.7 °F 36.0 °F 30.03 in Calm     89 % 0.00 in
05:14 39.2 °F 37.0 °F 30.02 in Calm     90 % 0.00 in
05:29 39.8 °F 37.0 °F 30.02 in Calm     91 % 0.00 in
05:44 40.8 °F 38.0 °F 30.03 in Calm     91 % 0.00 in
05:59 41.4 °F 39.0 °F 30.03 in Calm     91 % 0.00 in
06:14 41.7 °F 39.0 °F 30.03 in Calm     90 % 0.00 in
06:29 42.1 °F 39.0 °F 30.04 in Calm   2.0 mph 90 % 0.00 in
06:44 42.4 °F 39.0 °F 30.05 in Calm     89 % 0.00 in
06:59 42.7 °F 39.0 °F 30.05 in Calm     88 % 0.00 in
07:14 43.0 °F 40.0 °F 30.05 in Calm   1.0 mph 88 % 0.00 in
07:30 43.5 °F 40.0 °F 30.05 in Calm     87 % 0.00 in
07:44 44.3 °F 40.0 °F 30.04 in Calm   3.0 mph 86 % 0.00 in
07:59 46.1 °F 41.0 °F 30.04 in Calm   4.0 mph 83 % 0.00 in
08:15 48.4 °F 42.0 °F 30.04 in Calm   3.0 mph 78 % 0.00 in
08:30 50.1 °F 42.0 °F 30.03 in WNW 2.0 mph 4.0 mph 73 % 0.00 in
08:45 52.1 °F 42.0 °F 30.03 in NNW 1.0 mph 5.0 mph 68 % 0.00 in
09:00 53.6 °F 43.0 °F 30.02 in NW 1.0 mph 5.0 mph 68 % 0.00 in
09:15 54.9 °F 43.0 °F 30.02 in NW 5.0 mph 10.0 mph 64 % 0.00 in
09:30 55.9 °F 44.0 °F 30.02 in WNW 9.0 mph 14.0 mph 64 % 0.00 in
09:45 56.4 °F 45.0 °F 30.02 in NNE 4.0 mph 7.0 mph 65 % 0.00 in
10:00 56.8 °F 45.0 °F 30.02 in NW 5.0 mph 7.0 mph 66 % 0.00 in
10:15 57.4 °F 46.0 °F 30.02 in ENE 1.0 mph 6.0 mph 65 % 0.00 in
10:30 58.0 °F 46.0 °F 30.02 in WNW 4.0 mph 8.0 mph 64 % 0.00 in
10:45 58.9 °F 46.0 °F 30.02 in NNW 6.0 mph 9.0 mph 63 % 0.00 in
11:00 59.9 °F 46.0 °F 30.02 in North 2.0 mph 8.0 mph 61 % 0.00 in
11:15 61.0 °F 48.0 °F 30.02 in Calm   8.0 mph 62 % 0.00 in
11:30 62.0 °F 47.0 °F 30.02 in WNW 2.0 mph 10.0 mph 58 % 0.00 in
11:46 62.4 °F 47.0 °F 30.02 in Calm   9.0 mph 58 % 0.00 in
12:00 62.6 °F 46.0 °F 30.02 in NNW 4.0 mph 11.0 mph 56 % 0.00 in
12:16 63.3 °F 46.0 °F 30.02 in NNW 8.0 mph 9.0 mph 54 % 0.00 in
12:31 64.2 °F 46.0 °F 30.01 in NE 3.0 mph 10.0 mph 52 % 0.00 in
12:46 64.4 °F 46.0 °F 30.00 in NNW 2.0 mph 12.0 mph 51 % 0.00 in
13:01 65.4 °F 45.0 °F 29.99 in East 4.0 mph 12.0 mph 48 % 0.00 in
13:16 65.7 °F 45.0 °F 29.99 in North 6.0 mph 12.0 mph 47 % 0.00 in
13:31 65.9 °F 45.0 °F 29.98 in North 9.0 mph 11.0 mph 48 % 0.00 in
13:46 66.8 °F 45.0 °F 29.98 in ENE 5.0 mph 13.0 mph 45 % 0.00 in
14:01 67.1 °F 45.0 °F 29.97 in NNW 6.0 mph 13.0 mph 46 % 0.00 in
14:31 68.4 °F 44.0 °F 29.97 in ENE 1.0 mph 12.0 mph 41 % 0.00 in
14:46 68.8 °F 43.0 °F 29.96 in NNW 4.0 mph 11.0 mph 40 % 0.00 in
15:01 68.4 °F 42.0 °F 29.96 in NNW 4.0 mph 12.0 mph 39 % 0.00 in
15:16 68.0 °F 42.0 °F 29.95 in NW 3.0 mph 12.0 mph 39 % 0.00 in
15:31 68.4 °F 40.0 °F 29.95 in NW 7.0 mph 16.0 mph 35 % 0.00 in
15:46 69.4 °F 41.0 °F 29.95 in NE 4.0 mph 11.0 mph 36 % 0.00 in
16:01 68.4 °F 37.0 °F 29.95 in NNE 3.0 mph 12.0 mph 32 % 0.00 in
16:16 69.3 °F 39.0 °F 29.95 in NW 5.0 mph 14.0 mph 33 % 0.00 in
16:31 69.6 °F 41.0 °F 29.96 in NW 2.0 mph 15.0 mph 35 % 0.00 in
16:46 69.1 °F 39.0 °F 29.95 in NW 3.0 mph 12.0 mph 34 % 0.00 in
17:01 68.5 °F 37.0 °F 29.95 in NNW 3.0 mph 10.0 mph 32 % 0.00 in
17:16 69.1 °F 38.0 °F 29.96 in NE 11.0 mph 16.0 mph 32 % 0.00 in
17:31 68.6 °F 37.0 °F 29.96 in NNE 9.0 mph 15.0 mph 32 % 0.00 in
17:46 68.4 °F 36.0 °F 29.96 in NE 6.0 mph 12.0 mph 31 % 0.00 in
18:01 67.8 °F 35.0 °F 29.96 in East 9.0 mph 19.0 mph 30 % 0.00 in
18:16 67.0 °F 35.0 °F 29.96 in NW 1.0 mph 11.0 mph 31 % 0.00 in
18:31 66.7 °F 36.0 °F 29.96 in NW 4.0 mph 12.0 mph 32 % 0.00 in
18:46 66.6 °F 36.0 °F 29.96 in West 4.0 mph 11.0 mph 32 % 0.00 in
19:01 66.3 °F 35.0 °F 29.96 in ENE 2.0 mph 10.0 mph 31 % 0.00 in
19:16 65.9 °F 34.0 °F 29.96 in Calm   12.0 mph 31 % 0.00 in
19:31 65.5 °F 34.0 °F 29.97 in NNW 2.0 mph 10.0 mph 31 % 0.00 in
19:46 65.0 °F 34.0 °F 29.97 in WSW 4.0 mph 9.0 mph 32 % 0.00 in
20:01 64.5 °F 35.0 °F 29.97 in NNE 3.0 mph 10.0 mph 33 % 0.00 in
20:17 63.9 °F 35.0 °F 29.97 in Calm   8.0 mph 34 % 0.00 in
20:31 63.1 °F 36.0 °F 29.98 in Calm   4.0 mph 36 % 0.00 in
20:46 62.2 °F 36.0 °F 29.98 in Calm   3.0 mph 38 % 0.00 in
21:01 61.5 °F 36.0 °F 29.98 in Calm   2.0 mph 39 % 0.00 in
21:16 60.7 °F 36.0 °F 29.98 in Calm   3.0 mph 40 % 0.00 in
21:31 60.1 °F 36.0 °F 29.98 in Calm   2.0 mph 41 % 0.00 in
21:46 59.4 °F 36.0 °F 29.99 in Calm   5.0 mph 42 % 0.00 in
22:01 58.8 °F 36.0 °F 29.99 in Calm   1.0 mph 43 % 0.00 in
22:16 58.1 °F 36.0 °F 29.99 in Calm   2.0 mph 44 % 0.00 in
22:31 57.5 °F 37.0 °F 29.99 in Calm   3.0 mph 46 % 0.00 in
22:46 56.8 °F 38.0 °F 29.98 in Calm     49 % 0.00 in
23:01 55.7 °F 37.0 °F 29.98 in Calm   2.0 mph 50 % 0.00 in
23:16 55.1 °F 38.0 °F 29.98 in Calm   1.0 mph 52 % 0.00 in
23:31 54.4 °F 37.0 °F 29.97 in Calm     52 % 0.00 in
23:47 53.8 °F 37.0 °F 29.97 in Calm     54 % 0.00 in
Des Moines Weather and Climate
Compliments of Weather Underground - 3 mb

Script developed by  Jim McMurry - jmcmurry@mwt.net Adapted for the template by  Wim van der Kuil - Leuven-Template.eu

You find our weather info also at:

Weather Underground

Equipment we use:

Weather-station
Davis VP2 Plus

Weather-program
Davis Weatherlink.Com

Weather-server
iMac (Retina 4K, 21.5-inch, Late 2015)

Provider
Hostmonster.com

Davis VP2 Plus

Davis Weatherlink.Com

iMac (Retina 4K, 21.5-inch, Late 2015)

Hostmonster.com